sensor_id;sensor_type;location;lat;lon;timestamp;temperature;humidity
16825;DHT22;8529;48.108;-1.706;2022-11-09T00:00:41;13.10;99.90
16825;DHT22;8529;48.108;-1.706;2022-11-09T00:03:08;13.00;99.90
16825;DHT22;8529;48.108;-1.706;2022-11-09T00:05:35;13.00;99.90
16825;DHT22;8529;48.108;-1.706;2022-11-09T00:08:04;13.00;99.90
16825;DHT22;8529;48.108;-1.706;2022-11-09T00:10:31;13.00;99.90
16825;DHT22;8529;48.108;-1.706;2022-11-09T00:12:59;13.00;99.90
16825;DHT22;8529;48.108;-1.706;2022-11-09T00:15:27;13.00;99.90
16825;DHT22;8529;48.108;-1.706;2022-11-09T00:17:54;13.00;99.90
16825;DHT22;8529;48.108;-1.706;2022-11-09T00:20:21;13.00;99.90
16825;DHT22;8529;48.108;-1.706;2022-11-09T00:22:48;13.00;99.90
16825;DHT22;8529;48.108;-1.706;2022-11-09T00:25:16;12.90;99.90
16825;DHT22;8529;48.108;-1.706;2022-11-09T00:27:43;12.90;99.90
16825;DHT22;8529;48.108;-1.706;2022-11-09T00:30:11;12.90;99.90
16825;DHT22;8529;48.108;-1.706;2022-11-09T00:32:39;12.90;99.90
16825;DHT22;8529;48.108;-1.706;2022-11-09T00:35:06;12.90;99.90
16825;DHT22;8529;48.108;-1.706;2022-11-09T00:37:33;12.90;99.90
16825;DHT22;8529;48.108;-1.706;2022-11-09T00:40:00;12.90;99.90
16825;DHT22;8529;48.108;-1.706;2022-11-09T00:42:27;12.90;99.90
16825;DHT22;8529;48.108;-1.706;2022-11-09T00:44:54;12.90;99.90
16825;DHT22;8529;48.108;-1.706;2022-11-09T00:47:21;12.90;99.90
16825;DHT22;8529;48.108;-1.706;2022-11-09T00:49:50;13.00;99.90
16825;DHT22;8529;48.108;-1.706;2022-11-09T00:52:16;13.00;99.90
16825;DHT22;8529;48.108;-1.706;2022-11-09T00:54:43;13.00;99.90
16825;DHT22;8529;48.108;-1.706;2022-11-09T00:57:11;13.00;99.90
16825;DHT22;8529;48.108;-1.706;2022-11-09T00:59:38;13.10;99.90
16825;DHT22;8529;48.108;-1.706;2022-11-09T01:02:05;13.00;99.90
16825;DHT22;8529;48.108;-1.706;2022-11-09T01:04:32;13.00;99.90
16825;DHT22;8529;48.108;-1.706;2022-11-09T01:07:00;12.90;99.90
16825;DHT22;8529;48.108;-1.706;2022-11-09T01:09:27;12.90;99.90
16825;DHT22;8529;48.108;-1.706;2022-11-09T01:11:54;12.90;99.90
16825;DHT22;8529;48.108;-1.706;2022-11-09T01:14:21;12.90;99.90
16825;DHT22;8529;48.108;-1.706;2022-11-09T01:16:48;12.90;99.90
16825;DHT22;8529;48.108;-1.706;2022-11-09T01:19:15;12.80;99.90
16825;DHT22;8529;48.108;-1.706;2022-11-09T01:21:42;12.80;99.90
16825;DHT22;8529;48.108;-1.706;2022-11-09T01:24:10;12.90;99.90
16825;DHT22;8529;48.108;-1.706;2022-11-09T01:26:37;12.80;99.90
16825;DHT22;8529;48.108;-1.706;2022-11-09T01:29:04;12.80;99.90
16825;DHT22;8529;48.108;-1.706;2022-11-09T01:31:31;12.80;99.90
16825;DHT22;8529;48.108;-1.706;2022-11-09T01:33:58;12.80;99.90
16825;DHT22;8529;48.108;-1.706;2022-11-09T01:36:25;12.80;99.90
16825;DHT22;8529;48.108;-1.706;2022-11-09T01:38:52;12.70;99.90
16825;DHT22;8529;48.108;-1.706;2022-11-09T01:41:22;12.80;99.90
16825;DHT22;8529;48.108;-1.706;2022-11-09T01:44:03;12.70;99.90
16825;DHT22;8529;48.108;-1.706;2022-11-09T01:46:35;12.70;99.90
16825;DHT22;8529;48.108;-1.706;2022-11-09T01:49:08;12.70;99.90
16825;DHT22;8529;48.108;-1.706;2022-11-09T01:51:40;12.70;99.90
16825;DHT22;8529;48.108;-1.706;2022-11-09T01:54:10;12.70;99.90
16825;DHT22;8529;48.108;-1.706;2022-11-09T01:56:39;12.70;99.90
16825;DHT22;8529;48.108;-1.706;2022-11-09T01:59:10;12.70;99.90
16825;DHT22;8529;48.108;-1.706;2022-11-09T02:01:39;12.70;99.90
16825;DHT22;8529;48.108;-1.706;2022-11-09T02:04:10;12.70;99.90
16825;DHT22;8529;48.108;-1.706;2022-11-09T02:06:38;12.70;99.90
16825;DHT22;8529;48.108;-1.706;2022-11-09T02:09:11;12.60;99.90
16825;DHT22;8529;48.108;-1.706;2022-11-09T02:11:43;12.60;99.90
16825;DHT22;8529;48.108;-1.706;2022-11-09T02:14:11;12.60;99.90
16825;DHT22;8529;48.108;-1.706;2022-11-09T02:16:39;12.60;99.90
16825;DHT22;8529;48.108;-1.706;2022-11-09T02:19:06;12.60;99.90
16825;DHT22;8529;48.108;-1.706;2022-11-09T02:21:34;12.60;99.90
16825;DHT22;8529;48.108;-1.706;2022-11-09T02:24:01;12.60;99.90
16825;DHT22;8529;48.108;-1.706;2022-11-09T02:26:31;12.50;99.90
16825;DHT22;8529;48.108;-1.706;2022-11-09T02:29:03;12.50;99.90
16825;DHT22;8529;48.108;-1.706;2022-11-09T02:31:33;12.50;99.90
16825;DHT22;8529;48.108;-1.706;2022-11-09T02:34:04;12.50;99.90
16825;DHT22;8529;48.108;-1.706;2022-11-09T02:36:34;12.50;99.90
16825;DHT22;8529;48.108;-1.706;2022-11-09T02:39:01;12.50;99.90
16825;DHT22;8529;48.108;-1.706;2022-11-09T02:41:29;12.50;99.90
16825;DHT22;8529;48.108;-1.706;2022-11-09T02:43:59;12.50;99.90
16825;DHT22;8529;48.108;-1.706;2022-11-09T02:46:31;12.50;99.90
16825;DHT22;8529;48.108;-1.706;2022-11-09T02:48:58;12.40;99.90
16825;DHT22;8529;48.108;-1.706;2022-11-09T02:51:26;12.40;99.90
16825;DHT22;8529;48.108;-1.706;2022-11-09T02:53:54;12.40;99.90
16825;DHT22;8529;48.108;-1.706;2022-11-09T02:56:21;12.40;99.90
16825;DHT22;8529;48.108;-1.706;2022-11-09T02:58:48;12.40;99.90
16825;DHT22;8529;48.108;-1.706;2022-11-09T03:01:15;12.40;99.90
16825;DHT22;8529;48.108;-1.706;2022-11-09T03:03:42;12.40;99.90
16825;DHT22;8529;48.108;-1.706;2022-11-09T03:06:09;12.40;99.90
16825;DHT22;8529;48.108;-1.706;2022-11-09T03:08:36;12.40;99.90
16825;DHT22;8529;48.108;-1.706;2022-11-09T03:11:04;12.40;99.90
16825;DHT22;8529;48.108;-1.706;2022-11-09T03:13:31;12.40;99.90
16825;DHT22;8529;48.108;-1.706;2022-11-09T03:16:03;12.40;99.90
16825;DHT22;8529;48.108;-1.706;2022-11-09T03:18:30;12.40;99.90
16825;DHT22;8529;48.108;-1.706;2022-11-09T03:21:00;12.40;99.90
16825;DHT22;8529;48.108;-1.706;2022-11-09T03:23:27;12.30;99.90
16825;DHT22;8529;48.108;-1.706;2022-11-09T03:25:54;12.40;99.90
16825;DHT22;8529;48.108;-1.706;2022-11-09T03:28:23;12.30;99.90
16825;DHT22;8529;48.108;-1.706;2022-11-09T03:30:50;12.30;99.90
16825;DHT22;8529;48.108;-1.706;2022-11-09T03:33:17;12.30;99.90
16825;DHT22;8529;48.108;-1.706;2022-11-09T03:35:44;12.30;99.90
16825;DHT22;8529;48.108;-1.706;2022-11-09T03:38:11;12.30;99.90
16825;DHT22;8529;48.108;-1.706;2022-11-09T03:40:39;12.30;99.90
16825;DHT22;8529;48.108;-1.706;2022-11-09T03:43:06;12.20;99.90
16825;DHT22;8529;48.108;-1.706;2022-11-09T03:45:34;12.20;99.90
16825;DHT22;8529;48.108;-1.706;2022-11-09T03:48:01;12.20;99.90
16825;DHT22;8529;48.108;-1.706;2022-11-09T03:50:29;12.20;99.90
16825;DHT22;8529;48.108;-1.706;2022-11-09T03:52:57;12.20;99.90
16825;DHT22;8529;48.108;-1.706;2022-11-09T03:55:24;12.20;99.90
16825;DHT22;8529;48.108;-1.706;2022-11-09T03:57:51;12.20;99.90
16825;DHT22;8529;48.108;-1.706;2022-11-09T04:00:20;12.20;99.90
16825;DHT22;8529;48.108;-1.706;2022-11-09T04:02:48;12.10;99.90
16825;DHT22;8529;48.108;-1.706;2022-11-09T04:05:16;12.20;99.90
16825;DHT22;8529;48.108;-1.706;2022-11-09T04:07:46;12.10;99.90
16825;DHT22;8529;48.108;-1.706;2022-11-09T04:10:14;12.10;99.90
16825;DHT22;8529;48.108;-1.706;2022-11-09T04:12:41;12.10;99.90
16825;DHT22;8529;48.108;-1.706;2022-11-09T04:15:08;12.10;99.90
16825;DHT22;8529;48.108;-1.706;2022-11-09T04:17:36;12.10;99.90
16825;DHT22;8529;48.108;-1.706;2022-11-09T04:20:05;12.00;99.90
16825;DHT22;8529;48.108;-1.706;2022-11-09T04:22:32;12.00;99.90
16825;DHT22;8529;48.108;-1.706;2022-11-09T04:25:00;12.00;99.90
16825;DHT22;8529;48.108;-1.706;2022-11-09T04:27:27;12.00;99.90
16825;DHT22;8529;48.108;-1.706;2022-11-09T04:29:55;12.10;99.90
16825;DHT22;8529;48.108;-1.706;2022-11-09T04:32:22;12.00;99.90
16825;DHT22;8529;48.108;-1.706;2022-11-09T04:34:49;12.00;99.90
16825;DHT22;8529;48.108;-1.706;2022-11-09T04:37:17;12.00;99.90
16825;DHT22;8529;48.108;-1.706;2022-11-09T04:39:44;12.00;99.90
16825;DHT22;8529;48.108;-1.706;2022-11-09T04:42:11;12.00;99.90
16825;DHT22;8529;48.108;-1.706;2022-11-09T04:44:38;12.00;99.90
16825;DHT22;8529;48.108;-1.706;2022-11-09T04:47:05;12.00;99.90
16825;DHT22;8529;48.108;-1.706;2022-11-09T04:49:32;12.00;99.90
16825;DHT22;8529;48.108;-1.706;2022-11-09T04:51:59;12.00;99.90
16825;DHT22;8529;48.108;-1.706;2022-11-09T04:54:27;12.00;99.90
16825;DHT22;8529;48.108;-1.706;2022-11-09T04:56:54;12.00;99.90
16825;DHT22;8529;48.108;-1.706;2022-11-09T04:59:21;12.00;99.90
16825;DHT22;8529;48.108;-1.706;2022-11-09T05:01:48;12.00;99.90
16825;DHT22;8529;48.108;-1.706;2022-11-09T05:04:15;12.00;99.90
16825;DHT22;8529;48.108;-1.706;2022-11-09T05:06:42;11.90;99.90
16825;DHT22;8529;48.108;-1.706;2022-11-09T05:09:09;12.00;99.90
16825;DHT22;8529;48.108;-1.706;2022-11-09T05:11:37;11.90;99.90
16825;DHT22;8529;48.108;-1.706;2022-11-09T05:14:04;11.90;99.90
16825;DHT22;8529;48.108;-1.706;2022-11-09T05:16:31;11.90;99.90
16825;DHT22;8529;48.108;-1.706;2022-11-09T05:18:58;11.90;99.90
16825;DHT22;8529;48.108;-1.706;2022-11-09T05:21:25;11.90;99.90
16825;DHT22;8529;48.108;-1.706;2022-11-09T05:23:52;11.90;99.90
16825;DHT22;8529;48.108;-1.706;2022-11-09T05:26:25;11.90;99.90
16825;DHT22;8529;48.108;-1.706;2022-11-09T05:28:54;11.90;99.90
16825;DHT22;8529;48.108;-1.706;2022-11-09T05:31:22;11.90;99.90
16825;DHT22;8529;48.108;-1.706;2022-11-09T05:33:49;11.90;99.90
16825;DHT22;8529;48.108;-1.706;2022-11-09T05:36:17;11.90;99.90
16825;DHT22;8529;48.108;-1.706;2022-11-09T05:38:44;11.90;99.90
16825;DHT22;8529;48.108;-1.706;2022-11-09T05:41:12;11.90;99.90
16825;DHT22;8529;48.108;-1.706;2022-11-09T05:43:39;11.90;99.90
16825;DHT22;8529;48.108;-1.706;2022-11-09T05:46:07;12.00;99.90
16825;DHT22;8529;48.108;-1.706;2022-11-09T05:48:34;11.90;99.90
16825;DHT22;8529;48.108;-1.706;2022-11-09T05:51:01;12.00;99.90
16825;DHT22;8529;48.108;-1.706;2022-11-09T05:53:29;12.00;99.90
16825;DHT22;8529;48.108;-1.706;2022-11-09T05:56:00;12.00;99.90
16825;DHT22;8529;48.108;-1.706;2022-11-09T05:58:28;12.00;99.90
16825;DHT22;8529;48.108;-1.706;2022-11-09T06:00:55;12.00;99.90
16825;DHT22;8529;48.108;-1.706;2022-11-09T06:03:23;12.00;99.90
16825;DHT22;8529;48.108;-1.706;2022-11-09T06:05:50;12.00;99.90
16825;DHT22;8529;48.108;-1.706;2022-11-09T06:08:17;12.00;99.90
16825;DHT22;8529;48.108;-1.706;2022-11-09T06:10:44;12.00;99.90
16825;DHT22;8529;48.108;-1.706;2022-11-09T06:13:11;12.00;99.90
16825;DHT22;8529;48.108;-1.706;2022-11-09T06:15:38;12.00;99.90
16825;DHT22;8529;48.108;-1.706;2022-11-09T06:18:05;12.00;99.90
16825;DHT22;8529;48.108;-1.706;2022-11-09T06:20:33;12.00;99.90
16825;DHT22;8529;48.108;-1.706;2022-11-09T06:23:01;12.10;99.90
16825;DHT22;8529;48.108;-1.706;2022-11-09T06:25:28;12.10;99.90
16825;DHT22;8529;48.108;-1.706;2022-11-09T06:27:56;12.00;99.90
16825;DHT22;8529;48.108;-1.706;2022-11-09T06:30:23;12.00;99.90
16825;DHT22;8529;48.108;-1.706;2022-11-09T06:32:50;12.00;99.90
16825;DHT22;8529;48.108;-1.706;2022-11-09T06:35:17;12.00;99.90
16825;DHT22;8529;48.108;-1.706;2022-11-09T06:37:45;12.10;99.90
16825;DHT22;8529;48.108;-1.706;2022-11-09T06:40:13;12.10;99.90
16825;DHT22;8529;48.108;-1.706;2022-11-09T06:42:39;12.00;99.90
16825;DHT22;8529;48.108;-1.706;2022-11-09T06:45:07;11.90;99.90
16825;DHT22;8529;48.108;-1.706;2022-11-09T06:47:34;12.00;99.90
16825;DHT22;8529;48.108;-1.706;2022-11-09T06:50:01;12.00;99.90
16825;DHT22;8529;48.108;-1.706;2022-11-09T06:52:28;12.00;99.90
16825;DHT22;8529;48.108;-1.706;2022-11-09T06:54:57;12.00;99.90
16825;DHT22;8529;48.108;-1.706;2022-11-09T06:57:24;12.10;99.90
16825;DHT22;8529;48.108;-1.706;2022-11-09T06:59:51;12.10;99.90
16825;DHT22;8529;48.108;-1.706;2022-11-09T07:02:17;12.10;99.90
16825;DHT22;8529;48.108;-1.706;2022-11-09T07:04:44;12.10;99.90
16825;DHT22;8529;48.108;-1.706;2022-11-09T07:07:11;12.10;99.90
16825;DHT22;8529;48.108;-1.706;2022-11-09T07:09:38;12.10;99.90
16825;DHT22;8529;48.108;-1.706;2022-11-09T07:12:07;12.00;99.90
16825;DHT22;8529;48.108;-1.706;2022-11-09T07:14:34;12.00;99.90
16825;DHT22;8529;48.108;-1.706;2022-11-09T07:17:01;12.00;99.90
16825;DHT22;8529;48.108;-1.706;2022-11-09T07:19:28;12.00;99.90
16825;DHT22;8529;48.108;-1.706;2022-11-09T07:21:56;12.00;99.90
16825;DHT22;8529;48.108;-1.706;2022-11-09T07:24:23;11.90;99.90
16825;DHT22;8529;48.108;-1.706;2022-11-09T07:26:50;11.90;99.90
16825;DHT22;8529;48.108;-1.706;2022-11-09T07:29:18;11.90;99.90
16825;DHT22;8529;48.108;-1.706;2022-11-09T07:31:45;11.90;99.90
16825;DHT22;8529;48.108;-1.706;2022-11-09T07:34:12;12.00;99.90
16825;DHT22;8529;48.108;-1.706;2022-11-09T07:36:39;12.00;99.90
16825;DHT22;8529;48.108;-1.706;2022-11-09T07:39:06;12.10;99.90
16825;DHT22;8529;48.108;-1.706;2022-11-09T07:41:33;12.10;99.90
16825;DHT22;8529;48.108;-1.706;2022-11-09T07:44:00;12.10;99.90
16825;DHT22;8529;48.108;-1.706;2022-11-09T07:46:28;12.20;99.90
16825;DHT22;8529;48.108;-1.706;2022-11-09T07:48:55;12.20;99.90
16825;DHT22;8529;48.108;-1.706;2022-11-09T07:51:22;12.20;99.90
16825;DHT22;8529;48.108;-1.706;2022-11-09T07:53:49;12.20;99.90
16825;DHT22;8529;48.108;-1.706;2022-11-09T07:56:16;12.30;99.90
16825;DHT22;8529;48.108;-1.706;2022-11-09T07:58:43;12.30;99.90
16825;DHT22;8529;48.108;-1.706;2022-11-09T08:01:10;12.30;99.90
16825;DHT22;8529;48.108;-1.706;2022-11-09T08:03:38;12.30;99.90
16825;DHT22;8529;48.108;-1.706;2022-11-09T08:06:05;12.30;99.90
16825;DHT22;8529;48.108;-1.706;2022-11-09T08:08:32;12.30;99.90
16825;DHT22;8529;48.108;-1.706;2022-11-09T08:10:59;12.30;99.90
16825;DHT22;8529;48.108;-1.706;2022-11-09T08:13:26;12.30;99.90
16825;DHT22;8529;48.108;-1.706;2022-11-09T08:15:53;12.30;99.90
16825;DHT22;8529;48.108;-1.706;2022-11-09T08:18:21;12.30;99.90
16825;DHT22;8529;48.108;-1.706;2022-11-09T08:20:49;12.30;99.90
16825;DHT22;8529;48.108;-1.706;2022-11-09T08:23:17;12.30;99.90
16825;DHT22;8529;48.108;-1.706;2022-11-09T08:25:45;12.30;99.90
16825;DHT22;8529;48.108;-1.706;2022-11-09T08:28:13;12.30;99.90
16825;DHT22;8529;48.108;-1.706;2022-11-09T08:30:41;12.40;99.90
16825;DHT22;8529;48.108;-1.706;2022-11-09T08:33:08;12.40;99.90
16825;DHT22;8529;48.108;-1.706;2022-11-09T08:35:35;12.40;99.90
16825;DHT22;8529;48.108;-1.706;2022-11-09T08:38:04;12.40;99.90
16825;DHT22;8529;48.108;-1.706;2022-11-09T08:40:32;12.40;99.90
16825;DHT22;8529;48.108;-1.706;2022-11-09T08:43:03;12.40;99.90
16825;DHT22;8529;48.108;-1.706;2022-11-09T08:45:32;12.40;99.90
16825;DHT22;8529;48.108;-1.706;2022-11-09T08:48:00;12.40;99.90
16825;DHT22;8529;48.108;-1.706;2022-11-09T08:50:28;12.40;99.90
16825;DHT22;8529;48.108;-1.706;2022-11-09T08:52:56;12.50;99.90
16825;DHT22;8529;48.108;-1.706;2022-11-09T08:55:24;12.50;99.90
16825;DHT22;8529;48.108;-1.706;2022-11-09T08:57:53;12.50;99.90
16825;DHT22;8529;48.108;-1.706;2022-11-09T09:00:20;12.50;99.90
16825;DHT22;8529;48.108;-1.706;2022-11-09T09:02:47;12.50;99.90
16825;DHT22;8529;48.108;-1.706;2022-11-09T09:05:14;12.50;99.90
16825;DHT22;8529;48.108;-1.706;2022-11-09T09:07:41;12.50;99.90
16825;DHT22;8529;48.108;-1.706;2022-11-09T09:10:09;12.60;99.90
16825;DHT22;8529;48.108;-1.706;2022-11-09T09:12:37;12.60;99.90
16825;DHT22;8529;48.108;-1.706;2022-11-09T09:15:05;12.60;99.90
16825;DHT22;8529;48.108;-1.706;2022-11-09T09:17:32;12.60;99.90
16825;DHT22;8529;48.108;-1.706;2022-11-09T09:20:00;12.70;99.90
16825;DHT22;8529;48.108;-1.706;2022-11-09T09:22:27;12.70;99.90
16825;DHT22;8529;48.108;-1.706;2022-11-09T09:24:54;12.70;99.90
16825;DHT22;8529;48.108;-1.706;2022-11-09T09:27:21;12.60;99.90
16825;DHT22;8529;48.108;-1.706;2022-11-09T09:29:50;12.70;99.90
16825;DHT22;8529;48.108;-1.706;2022-11-09T09:32:17;12.70;99.90
16825;DHT22;8529;48.108;-1.706;2022-11-09T09:34:44;12.70;99.90
16825;DHT22;8529;48.108;-1.706;2022-11-09T09:37:11;12.70;99.90
16825;DHT22;8529;48.108;-1.706;2022-11-09T09:39:38;12.70;99.90
16825;DHT22;8529;48.108;-1.706;2022-11-09T09:42:07;12.80;99.90
16825;DHT22;8529;48.108;-1.706;2022-11-09T09:44:42;12.80;99.90
16825;DHT22;8529;48.108;-1.706;2022-11-09T09:47:15;12.80;99.90
16825;DHT22;8529;48.108;-1.706;2022-11-09T09:49:46;12.80;99.90
16825;DHT22;8529;48.108;-1.706;2022-11-09T09:52:19;12.90;99.90
16825;DHT22;8529;48.108;-1.706;2022-11-09T09:54:52;12.90;99.90
16825;DHT22;8529;48.108;-1.706;2022-11-09T09:57:21;12.90;99.90
16825;DHT22;8529;48.108;-1.706;2022-11-09T09:59:50;13.00;99.90
16825;DHT22;8529;48.108;-1.706;2022-11-09T10:02:24;13.00;99.90
16825;DHT22;8529;48.108;-1.706;2022-11-09T10:04:51;13.00;99.90
16825;DHT22;8529;48.108;-1.706;2022-11-09T10:07:26;13.10;99.90
16825;DHT22;8529;48.108;-1.706;2022-11-09T10:10:14;13.10;99.90
16825;DHT22;8529;48.108;-1.706;2022-11-09T10:12:56;13.20;99.90
16825;DHT22;8529;48.108;-1.706;2022-11-09T10:15:32;13.20;99.90
16825;DHT22;8529;48.108;-1.706;2022-11-09T10:18:13;13.20;99.90
16825;DHT22;8529;48.108;-1.706;2022-11-09T10:20:53;13.20;99.90
16825;DHT22;8529;48.108;-1.706;2022-11-09T10:23:35;13.30;99.90
16825;DHT22;8529;48.108;-1.706;2022-11-09T10:26:13;13.30;99.90
16825;DHT22;8529;48.108;-1.706;2022-11-09T10:28:44;13.40;99.90
16825;DHT22;8529;48.108;-1.706;2022-11-09T10:31:16;13.40;99.90
16825;DHT22;8529;48.108;-1.706;2022-11-09T10:33:50;13.50;99.90
16825;DHT22;8529;48.108;-1.706;2022-11-09T10:36:23;13.50;99.90
16825;DHT22;8529;48.108;-1.706;2022-11-09T10:38:52;13.60;99.90
16825;DHT22;8529;48.108;-1.706;2022-11-09T10:41:26;13.60;99.90
16825;DHT22;8529;48.108;-1.706;2022-11-09T10:43:55;13.60;99.90
16825;DHT22;8529;48.108;-1.706;2022-11-09T10:46:22;13.60;99.90
16825;DHT22;8529;48.108;-1.706;2022-11-09T10:48:51;13.60;99.90
16825;DHT22;8529;48.108;-1.706;2022-11-09T10:51:31;13.60;99.90
16825;DHT22;8529;48.108;-1.706;2022-11-09T10:54:13;13.70;99.90
16825;DHT22;8529;48.108;-1.706;2022-11-09T10:56:45;13.70;99.90
16825;DHT22;8529;48.108;-1.706;2022-11-09T10:59:36;13.70;99.90
16825;DHT22;8529;48.108;-1.706;2022-11-09T11:02:39;13.70;99.90
16825;DHT22;8529;48.108;-1.706;2022-11-09T11:05:31;13.70;99.90
16825;DHT22;8529;48.108;-1.706;2022-11-09T11:08:23;13.80;99.90
16825;DHT22;8529;48.108;-1.706;2022-11-09T11:10:50;13.80;99.90
16825;DHT22;8529;48.108;-1.706;2022-11-09T11:13:22;13.80;99.90
16825;DHT22;8529;48.108;-1.706;2022-11-09T11:15:50;13.90;99.90
16825;DHT22;8529;48.108;-1.706;2022-11-09T11:18:22;13.90;99.90
16825;DHT22;8529;48.108;-1.706;2022-11-09T11:21:08;14.00;99.90
16825;DHT22;8529;48.108;-1.706;2022-11-09T11:23:36;14.00;99.90
16825;DHT22;8529;48.108;-1.706;2022-11-09T11:26:23;14.00;99.90
16825;DHT22;8529;48.108;-1.706;2022-11-09T11:28:56;14.00;99.90
16825;DHT22;8529;48.108;-1.706;2022-11-09T11:31:24;14.00;99.90
16825;DHT22;8529;48.108;-1.706;2022-11-09T11:33:51;14.00;99.90
16825;DHT22;8529;48.108;-1.706;2022-11-09T11:36:25;14.00;99.90
16825;DHT22;8529;48.108;-1.706;2022-11-09T11:38:56;14.00;99.90
16825;DHT22;8529;48.108;-1.706;2022-11-09T11:41:45;14.00;99.90
16825;DHT22;8529;48.108;-1.706;2022-11-09T11:44:21;14.00;99.90
16825;DHT22;8529;48.108;-1.706;2022-11-09T11:46:57;14.00;99.90
16825;DHT22;8529;48.108;-1.706;2022-11-09T11:49:44;14.00;99.90
16825;DHT22;8529;48.108;-1.706;2022-11-09T11:52:20;14.10;99.90
16825;DHT22;8529;48.108;-1.706;2022-11-09T11:55:13;14.10;99.90
16825;DHT22;8529;48.108;-1.706;2022-11-09T11:57:50;14.10;99.90
16825;DHT22;8529;48.108;-1.706;2022-11-09T12:00:19;14.10;99.90
16825;DHT22;8529;48.108;-1.706;2022-11-09T12:03:22;14.20;99.90
16825;DHT22;8529;48.108;-1.706;2022-11-09T12:06:13;14.20;99.90
16825;DHT22;8529;48.108;-1.706;2022-11-09T12:09:01;14.20;99.90
16825;DHT22;8529;48.108;-1.706;2022-11-09T12:11:50;14.30;99.90
16825;DHT22;8529;48.108;-1.706;2022-11-09T12:14:26;14.30;99.90
16825;DHT22;8529;48.108;-1.706;2022-11-09T12:17:04;14.30;99.90
16825;DHT22;8529;48.108;-1.706;2022-11-09T12:19:57;14.30;99.90
16825;DHT22;8529;48.108;-1.706;2022-11-09T12:22:33;14.40;99.90
16825;DHT22;8529;48.108;-1.706;2022-11-09T12:25:18;14.40;99.90
16825;DHT22;8529;48.108;-1.706;2022-11-09T12:28:05;14.40;99.90
16825;DHT22;8529;48.108;-1.706;2022-11-09T12:30:47;14.40;99.90
16825;DHT22;8529;48.108;-1.706;2022-11-09T12:33:22;14.40;99.90
16825;DHT22;8529;48.108;-1.706;2022-11-09T12:35:55;14.40;99.90
16825;DHT22;8529;48.108;-1.706;2022-11-09T12:38:25;14.50;99.90
16825;DHT22;8529;48.108;-1.706;2022-11-09T12:40:57;14.50;99.90
16825;DHT22;8529;48.108;-1.706;2022-11-09T12:43:32;14.50;99.90
16825;DHT22;8529;48.108;-1.706;2022-11-09T12:46:02;14.60;99.90
16825;DHT22;8529;48.108;-1.706;2022-11-09T12:48:31;14.60;99.90
16825;DHT22;8529;48.108;-1.706;2022-11-09T12:51:00;14.60;99.90
16825;DHT22;8529;48.108;-1.706;2022-11-09T12:53:31;14.50;99.90
16825;DHT22;8529;48.108;-1.706;2022-11-09T12:56:02;14.50;99.90
16825;DHT22;8529;48.108;-1.706;2022-11-09T12:58:33;14.50;99.90
16825;DHT22;8529;48.108;-1.706;2022-11-09T13:01:01;14.40;99.90
16825;DHT22;8529;48.108;-1.706;2022-11-09T13:03:30;14.40;99.90
16825;DHT22;8529;48.108;-1.706;2022-11-09T13:06:10;14.40;99.90
16825;DHT22;8529;48.108;-1.706;2022-11-09T13:08:38;14.30;99.90
16825;DHT22;8529;48.108;-1.706;2022-11-09T13:14:35;14.40;99.90
16825;DHT22;8529;48.108;-1.706;2022-11-09T13:20:38;14.40;99.90
16825;DHT22;8529;48.108;-1.706;2022-11-09T13:23:33;14.40;99.90
16825;DHT22;8529;48.108;-1.706;2022-11-09T13:26:01;14.40;99.90
16825;DHT22;8529;48.108;-1.706;2022-11-09T13:28:42;14.40;99.90
16825;DHT22;8529;48.108;-1.706;2022-11-09T13:31:11;14.40;99.90
16825;DHT22;8529;48.108;-1.706;2022-11-09T13:33:38;14.50;99.90
16825;DHT22;8529;48.108;-1.706;2022-11-09T13:36:17;14.50;99.90
16825;DHT22;8529;48.108;-1.706;2022-11-09T13:38:44;14.50;99.90
16825;DHT22;8529;48.108;-1.706;2022-11-09T13:41:40;14.50;99.90
16825;DHT22;8529;48.108;-1.706;2022-11-09T13:44:16;14.50;99.90
16825;DHT22;8529;48.108;-1.706;2022-11-09T13:46:45;14.40;99.90
16825;DHT22;8529;48.108;-1.706;2022-11-09T13:52:37;14.50;99.90
16825;DHT22;8529;48.108;-1.706;2022-11-09T13:55:22;14.60;99.90
16825;DHT22;8529;48.108;-1.706;2022-11-09T13:57:50;14.70;99.90
16825;DHT22;8529;48.108;-1.706;2022-11-09T14:00:19;14.70;99.90
16825;DHT22;8529;48.108;-1.706;2022-11-09T14:02:59;14.80;99.90
16825;DHT22;8529;48.108;-1.706;2022-11-09T14:05:29;14.80;99.90
16825;DHT22;8529;48.108;-1.706;2022-11-09T14:07:59;14.80;99.90
16825;DHT22;8529;48.108;-1.706;2022-11-09T14:10:50;14.80;99.90
16825;DHT22;8529;48.108;-1.706;2022-11-09T14:13:36;14.80;99.90
16825;DHT22;8529;48.108;-1.706;2022-11-09T14:16:11;14.80;99.90
16825;DHT22;8529;48.108;-1.706;2022-11-09T14:18:50;14.80;99.90
16825;DHT22;8529;48.108;-1.706;2022-11-09T14:21:30;14.90;99.90
16825;DHT22;8529;48.108;-1.706;2022-11-09T14:24:01;14.90;99.90
16825;DHT22;8529;48.108;-1.706;2022-11-09T14:26:29;14.90;99.90
16825;DHT22;8529;48.108;-1.706;2022-11-09T14:28:56;14.80;99.90
16825;DHT22;8529;48.108;-1.706;2022-11-09T14:31:25;14.80;99.90
16825;DHT22;8529;48.108;-1.706;2022-11-09T14:34:04;14.80;99.90
16825;DHT22;8529;48.108;-1.706;2022-11-09T14:36:33;15.00;99.90
16825;DHT22;8529;48.108;-1.706;2022-11-09T14:39:03;15.10;99.90
16825;DHT22;8529;48.108;-1.706;2022-11-09T14:41:32;15.10;99.90
16825;DHT22;8529;48.108;-1.706;2022-11-09T14:43:59;15.00;99.90
16825;DHT22;8529;48.108;-1.706;2022-11-09T14:46:28;15.00;99.90
16825;DHT22;8529;48.108;-1.706;2022-11-09T14:48:57;15.00;99.90
16825;DHT22;8529;48.108;-1.706;2022-11-09T14:51:31;15.00;99.90
16825;DHT22;8529;48.108;-1.706;2022-11-09T14:53:59;15.00;99.90
16825;DHT22;8529;48.108;-1.706;2022-11-09T14:56:28;15.00;99.90
16825;DHT22;8529;48.108;-1.706;2022-11-09T14:58:56;15.00;99.90
16825;DHT22;8529;48.108;-1.706;2022-11-09T15:01:25;14.90;99.90
16825;DHT22;8529;48.108;-1.706;2022-11-09T15:04:05;14.90;99.90
16825;DHT22;8529;48.108;-1.706;2022-11-09T15:06:34;14.90;99.90
16825;DHT22;8529;48.108;-1.706;2022-11-09T15:09:05;14.80;99.90
16825;DHT22;8529;48.108;-1.706;2022-11-09T15:11:34;14.80;99.90
16825;DHT22;8529;48.108;-1.706;2022-11-09T15:14:11;14.80;99.90
16825;DHT22;8529;48.108;-1.706;2022-11-09T15:16:39;14.80;99.90
16825;DHT22;8529;48.108;-1.706;2022-11-09T15:19:19;14.90;99.90
16825;DHT22;8529;48.108;-1.706;2022-11-09T15:21:48;14.90;99.90
16825;DHT22;8529;48.108;-1.706;2022-11-09T15:24:16;14.80;99.90
16825;DHT22;8529;48.108;-1.706;2022-11-09T15:26:45;14.80;99.90
16825;DHT22;8529;48.108;-1.706;2022-11-09T15:29:35;14.80;99.90
16825;DHT22;8529;48.108;-1.706;2022-11-09T15:32:12;14.80;99.90
16825;DHT22;8529;48.108;-1.706;2022-11-09T15:34:41;14.80;99.90
16825;DHT22;8529;48.108;-1.706;2022-11-09T15:37:26;14.80;99.90
16825;DHT22;8529;48.108;-1.706;2022-11-09T15:39:54;14.70;99.90
16825;DHT22;8529;48.108;-1.706;2022-11-09T15:42:22;14.70;99.90
16825;DHT22;8529;48.108;-1.706;2022-11-09T15:44:54;14.80;99.90
16825;DHT22;8529;48.108;-1.706;2022-11-09T15:47:23;14.70;99.90
16825;DHT22;8529;48.108;-1.706;2022-11-09T15:49:52;14.70;99.90
16825;DHT22;8529;48.108;-1.706;2022-11-09T15:52:19;14.70;99.90
16825;DHT22;8529;48.108;-1.706;2022-11-09T15:54:48;14.70;99.90
16825;DHT22;8529;48.108;-1.706;2022-11-09T15:57:16;14.70;99.90
16825;DHT22;8529;48.108;-1.706;2022-11-09T15:59:44;14.60;99.90